Time;durP1;ratioP1;P1;durP2;ratioP2;P2;SDS_P1;SDS_P2;PMS_P1;PMS_P2;Temp;Humidity;BMP_temperature;BMP_pressure;BME280_temperature;BME280_humidity;BME280_pressure;Samples;Min_cycle;Max_cycle;Signal;HPM_P1;HPM_P2
2021/01/25 00:00:34;;;;;;;44.10;20.60;;;1.70;99.90;;;;;;4995625;28;20630;-64
2021/01/25 00:09:49;;;;;;;45.30;20.47;;;1.70;99.90;;;;;;4938054;29;20220;-64
2021/01/25 00:13:05;;;;;;;43.93;21.93;;;1.70;99.90;;;;;;4971675;28;21045;-64
2021/01/25 00:15:48;;;;;;;46.67;22.90;;;1.70;99.90;;;;;;5011384;28;20243;-64
2021/01/25 00:21:03;;;;;;;50.20;22.43;;;1.70;99.90;;;;;;4999760;28;20234;-64
2021/01/25 00:23:41;;;;;;;45.97;21.50;;;1.70;99.90;;;;;;4992790;28;20579;-64
2021/01/25 00:26:27;;;;;;;53.03;23.17;;;1.70;99.90;;;;;;4982761;28;20276;-64
2021/01/25 00:32:11;;;;;;;48.90;21.87;;;1.70;99.90;;;;;;5005215;28;20277;-64
2021/01/25 00:37:43;;;;;;;52.00;23.17;;;1.80;99.90;;;;;;5034186;28;20282;-65
2021/01/25 00:40:30;;;;;;;51.20;22.57;;;1.80;99.90;;;;;;4993795;28;20311;-64
2021/01/25 00:46:35;;;;;;;51.67;22.60;;;1.80;99.90;;;;;;5038841;28;20307;-64
2021/01/25 00:49:55;;;;;;;59.03;24.07;;;1.70;99.90;;;;;;5047798;28;20208;-64
2021/01/25 00:53:08;;;;;;;65.43;23.33;;;1.70;99.90;;;;;;5049373;28;20221;-64
2021/01/25 00:55:35;;;;;;;54.83;23.70;;;1.70;99.90;;;;;;5043077;28;20221;-64
2021/01/25 00:58:10;;;;;;;52.77;22.50;;;1.70;99.90;;;;;;5034653;28;20244;-64
2021/01/25 01:00:56;;;;;;;52.10;22.90;;;1.70;99.90;;;;;;5036687;28;20602;-64
2021/01/25 01:07:10;;;;;;;59.67;24.23;;;1.80;99.90;;;;;;5038831;28;20213;-64
2021/01/25 01:09:39;;;;;;;53.47;22.73;;;1.80;99.90;;;;;;5046007;28;20212;-64
2021/01/25 01:12:20;;;;;;;53.60;23.50;;;1.70;99.90;;;;;;5040723;28;20213;-64
2021/01/25 01:15:15;;;;;;;53.50;22.07;;;1.70;99.90;;;;;;5041698;28;20543;-64
2021/01/25 01:18:05;;;;;;;56.83;23.80;;;1.70;99.90;;;;;;5040129;28;20221;-64
2021/01/25 01:20:35;;;;;;;53.23;23.47;;;1.70;99.90;;;;;;5051225;28;20259;-64
2021/01/25 01:23:28;;;;;;;63.73;24.23;;;1.70;99.90;;;;;;5040556;28;20214;-64
2021/01/25 01:28:49;;;;;;;61.37;24.00;;;1.70;99.90;;;;;;5045705;28;20220;-64
2021/01/25 01:31:24;;;;;;;59.10;22.87;;;1.70;99.90;;;;;;5065860;28;20246;-64
2021/01/25 01:33:52;;;;;;;66.40;23.53;;;1.70;99.90;;;;;;5065799;28;20207;-64
2021/01/25 01:36:36;;;;;;;48.67;21.43;;;1.70;99.90;;;;;;5047294;28;20621;-65
2021/01/25 01:39:16;;;;;;;54.63;23.00;;;1.60;99.90;;;;;;5066766;28;20261;-64
2021/01/25 01:41:50;;;;;;;59.57;24.10;;;1.60;99.90;;;;;;5043850;28;20227;-64
2021/01/25 01:44:21;;;;;;;61.27;24.33;;;1.60;99.90;;;;;;5060498;28;20258;-64
2021/01/25 01:50:20;;;;;;;59.97;23.77;;;1.60;99.90;;;;;;5039597;28;20219;-64
2021/01/25 01:53:40;;;;;;;61.30;24.37;;;1.70;99.90;;;;;;5068922;28;20258;-64
2021/01/25 01:56:32;;;;;;;57.23;23.87;;;1.70;99.90;;;;;;5033207;28;20223;-64
2021/01/25 01:59:10;;;;;;;50.07;22.43;;;1.60;99.90;;;;;;5061277;28;20246;-64
2021/01/25 02:01:43;;;;;;;63.07;23.43;;;1.60;99.90;;;;;;5025785;28;20236;-64
2021/01/25 02:04:39;;;;;;;68.23;23.40;;;1.60;99.90;;;;;;5045777;28;20269;-64
2021/01/25 02:07:52;;;;;;;57.23;23.40;;;1.60;99.90;;;;;;5066809;28;21681;-64
2021/01/25 02:10:21;;;;;;;63.47;24.13;;;1.60;99.90;;;;;;5067089;28;20212;-64
2021/01/25 02:13:19;;;;;;;65.27;24.03;;;1.60;99.90;;;;;;5005846;28;20228;-65
2021/01/25 02:16:00;;;;;;;59.10;23.83;;;1.60;99.90;;;;;;5056366;28;20617;-64
2021/01/25 02:19:03;;;;;;;62.90;24.53;;;1.60;99.90;;;;;;5020278;28;20306;-64
2021/01/25 02:21:51;;;;;;;63.77;24.80;;;1.60;99.90;;;;;;5038336;28;20235;-64
2021/01/25 02:24:44;;;;;;;64.03;25.37;;;1.70;99.90;;;;;;5037149;28;20223;-64
2021/01/25 02:27:37;;;;;;;63.70;25.47;;;1.70;99.90;;;;;;5063657;28;20687;-64
2021/01/25 02:30:19;;;;;;;62.27;23.07;;;1.70;99.90;;;;;;5041371;28;20224;-64
2021/01/25 02:36:13;;;;;;;77.23;26.60;;;1.60;99.90;;;;;;5056374;28;20274;-64
2021/01/25 02:41:36;;;;;;;68.10;24.60;;;1.60;99.90;;;;;;5038648;28;20694;-64
2021/01/25 02:44:12;;;;;;;74.70;24.80;;;1.60;99.90;;;;;;5027863;28;20772;-64
2021/01/25 02:46:45;;;;;;;75.80;25.17;;;1.60;99.90;;;;;;5056697;28;20247;-64
2021/01/25 02:49:19;;;;;;;66.40;25.23;;;1.60;99.90;;;;;;5038893;28;20227;-64
2021/01/25 02:51:51;;;;;;;62.87;23.37;;;1.60;99.90;;;;;;5039601;28;20249;-64
2021/01/25 02:54:36;;;;;;;69.97;25.37;;;1.60;99.90;;;;;;5052967;28;20323;-64
2021/01/25 02:57:52;;;;;;;60.47;24.43;;;1.60;99.90;;;;;;5054796;28;20224;-65
2021/01/25 03:00:44;;;;;;;62.87;23.93;;;1.60;99.90;;;;;;5038147;28;20616;-64
2021/01/25 03:03:14;;;;;;;67.60;24.40;;;1.60;99.90;;;;;;5068341;28;20273;-65
2021/01/25 03:05:56;;;;;;;67.70;26.43;;;1.60;99.90;;;;;;5067388;28;20238;-64
2021/01/25 03:15:02;;;;;;;67.33;24.57;;;1.60;99.90;;;;;;5057842;28;20575;-64
2021/01/25 03:17:33;;;;;;;66.50;24.00;;;1.60;99.90;;;;;;5067002;28;20216;-64
2021/01/25 03:20:06;;;;;;;76.70;25.77;;;1.60;99.90;;;;;;5069935;28;20235;-64
2021/01/25 03:22:36;;;;;;;65.67;24.27;;;1.60;99.90;;;;;;5069625;28;20697;-64
2021/01/25 03:25:41;;;;;;;70.30;25.10;;;1.60;99.90;;;;;;5071167;28;20601;-64
2021/01/25 03:31:28;;;;;;;68.10;25.00;;;1.60;99.90;;;;;;5063845;28;20228;-64
2021/01/25 03:34:03;;;;;;;68.33;24.23;;;1.60;99.90;;;;;;5039827;28;20278;-64
2021/01/25 03:36:37;;;;;;;71.10;25.87;;;1.60;99.90;;;;;;5062927;28;20273;-64
2021/01/25 03:39:27;;;;;;;68.27;25.33;;;1.50;99.90;;;;;;5064525;28;20244;-65
2021/01/25 03:41:57;;;;;;;84.20;27.63;;;1.50;99.90;;;;;;5057792;28;20251;-65
2021/01/25 03:44:28;;;;;;;73.77;26.43;;;1.50;99.90;;;;;;5068840;28;20217;-65
2021/01/25 03:47:24;;;;;;;65.07;25.10;;;1.50;99.90;;;;;;5061913;28;20725;-64
2021/01/25 03:49:53;;;;;;;76.03;25.87;;;1.50;99.90;;;;;;5063744;28;20217;-64
2021/01/25 03:52:33;;;;;;;67.33;24.67;;;1.50;99.90;;;;;;5061949;28;20208;-64
2021/01/25 03:55:01;;;;;;;69.43;26.90;;;1.50;99.90;;;;;;5049173;28;20743;-65
2021/01/25 03:57:32;;;;;;;67.07;24.63;;;1.50;99.90;;;;;;5066568;28;20299;-65
2021/01/25 04:00:25;;;;;;;65.73;24.03;;;1.50;99.90;;;;;;5029368;28;20221;-64
2021/01/25 04:05:47;;;;;;;68.20;24.53;;;1.50;99.90;;;;;;5039181;28;20231;-65
2021/01/25 04:08:15;;;;;;;71.07;25.70;;;1.50;99.90;;;;;;5073439;28;20601;-65
2021/01/25 04:11:04;;;;;;;67.80;24.20;;;1.50;99.90;;;;;;5058700;28;20259;-64
2021/01/25 04:13:34;;;;;;;60.77;22.37;;;1.50;99.90;;;;;;5064075;28;20609;-65
2021/01/25 04:16:37;;;;;;;75.57;23.13;;;1.50;99.90;;;;;;5059866;28;20273;-65
2021/01/25 04:19:18;;;;;;;79.50;26.83;;;1.50;99.90;;;;;;5002649;28;20218;-64
2021/01/25 04:22:12;;;;;;;78.63;28.57;;;1.50;99.90;;;;;;4942913;28;20230;-65
2021/01/25 04:24:52;;;;;;;75.73;28.20;;;1.50;99.90;;;;;;5002000;28;20759;-64
2021/01/25 04:27:20;;;;;;;77.53;28.07;;;1.50;99.90;;;;;;5036418;28;20612;-65
2021/01/25 04:29:47;;;;;;;80.43;26.50;;;1.50;99.90;;;;;;5070053;28;20212;-64
2021/01/25 04:32:14;;;;;;;81.77;26.67;;;1.50;99.90;;;;;;5066763;28;20353;-65
2021/01/25 04:34:42;;;;;;;81.03;27.47;;;1.50;99.90;;;;;;5070908;28;20211;-64
2021/01/25 04:40:22;;;;;;;;;;;;;;;;;;;;;
2021/01/25 04:46:33;;;;;;;80.00;26.70;;;1.50;99.90;;;;;;5056553;28;20250;-65
2021/01/25 04:49:01;;;;;;;99.13;32.03;;;1.50;99.90;;;;;;5004588;28;20272;-64
2021/01/25 04:51:38;;;;;;;103.40;32.17;;;1.50;99.90;;;;;;5059994;28;20208;-64
2021/01/25 04:57:15;;;;;;;93.43;31.30;;;1.50;99.90;;;;;;5011597;28;20221;-65
2021/01/25 05:00:07;;;;;;;93.17;30.00;;;1.50;99.90;;;;;;5064225;28;20212;-65
2021/01/25 05:03:08;;;;;;;106.50;32.30;;;1.50;99.90;;;;;;5023153;28;20730;-64
2021/01/25 05:05:35;;;;;;;118.70;36.93;;;1.60;99.90;;;;;;5061191;28;20219;-65
2021/01/25 05:14:53;;;;;;;106.77;32.27;;;1.60;99.90;;;;;;5043381;28;20231;-65
2021/01/25 05:17:45;;;;;;;154.57;39.90;;;1.60;99.90;;;;;;5046120;28;20329;-65
2021/01/25 05:20:39;;;;;;;135.00;36.10;;;1.60;99.90;;;;;;5020331;28;20282;-64
2021/01/25 05:23:21;;;;;;;113.27;32.77;;;1.60;99.90;;;;;;5056538;28;20211;-65
2021/01/25 05:29:22;;;;;;;95.80;30.33;;;1.60;99.90;;;;;;5069574;28;20708;-65
2021/01/25 05:31:56;;;;;;;85.23;29.37;;;1.60;99.90;;;;;;4999352;28;20279;-65
2021/01/25 05:35:15;;;;;;;88.53;27.33;;;1.60;99.90;;;;;;5060704;28;20270;-65
2021/01/25 05:37:51;;;;;;;82.10;28.33;;;1.60;99.90;;;;;;5063320;28;20228;-65
2021/01/25 05:41:23;;;;;;;92.33;29.50;;;1.60;99.90;;;;;;5009371;28;20229;-65
2021/01/25 05:44:13;;;;;;;80.40;28.17;;;1.60;99.90;;;;;;5059352;28;20300;-64
2021/01/25 05:47:17;;;;;;;102.13;30.27;;;1.60;99.90;;;;;;5060274;28;20250;-65
2021/01/25 05:49:59;;;;;;;83.80;29.30;;;1.70;99.90;;;;;;5052214;28;20248;-65
2021/01/25 05:52:57;;;;;;;86.77;29.57;;;1.70;99.90;;;;;;5065490;28;20264;-65
2021/01/25 05:55:33;;;;;;;88.27;29.20;;;1.70;99.90;;;;;;5053227;28;20239;-65
2021/01/25 05:58:09;;;;;;;91.10;30.03;;;1.70;99.90;;;;;;5066063;28;20215;-65
2021/01/25 06:00:42;;;;;;;88.43;30.27;;;1.70;99.90;;;;;;5055544;28;20223;-65
2021/01/25 06:03:40;;;;;;;90.07;29.63;;;1.70;99.90;;;;;;5053300;28;20212;-65
2021/01/25 06:06:09;;;;;;;98.63;28.50;;;1.70;99.90;;;;;;5057252;28;20208;-65
2021/01/25 06:09:41;;;;;;;106.13;29.33;;;1.70;99.90;;;;;;5052493;28;20701;-65
2021/01/25 06:13:00;;;;;;;113.80;29.17;;;1.60;99.90;;;;;;5003169;28;20229;-65
2021/01/25 06:16:08;;;;;;;110.03;28.40;;;1.60;99.90;;;;;;5006622;28;20271;-65
2021/01/25 06:22:11;;;;;;;112.23;30.40;;;1.60;99.90;;;;;;4926515;29;20588;-65
2021/01/25 06:24:56;;;;;;;127.03;31.93;;;1.50;99.90;;;;;;4950201;28;20233;-65
2021/01/25 06:31:22;;;;;;;141.80;31.67;;;1.50;99.90;;;;;;4947656;29;20592;-65
2021/01/25 06:37:31;;;;;;;131.43;32.00;;;1.50;99.90;;;;;;4850541;29;20733;-64
2021/01/25 06:41:45;;;;;;;135.00;32.03;;;1.40;99.90;;;;;;4935766;28;20763;-65
2021/01/25 06:44:13;;;;;;;133.97;31.77;;;1.40;99.90;;;;;;4952708;29;20255;-65
2021/01/25 06:47:25;;;;;;;119.83;31.43;;;1.40;99.90;;;;;;4955996;29;20257;-65
2021/01/25 06:50:11;;;;;;;117.57;30.53;;;1.40;99.90;;;;;;4894392;29;20230;-65
2021/01/25 06:52:56;;;;;;;124.03;30.07;;;1.40;99.90;;;;;;4884742;29;20356;-65
2021/01/25 06:55:48;;;;;;;126.60;30.87;;;1.40;99.90;;;;;;4937648;29;20328;-65
2021/01/25 06:58:31;;;;;;;113.50;30.80;;;1.40;99.90;;;;;;4949086;29;20287;-65
2021/01/25 07:01:08;;;;;;;117.73;32.70;;;1.40;99.90;;;;;;4942371;29;20228;-65
2021/01/25 07:03:57;;;;;;;134.17;31.60;;;1.40;99.90;;;;;;4945252;29;20208;-65
2021/01/25 07:13:35;;;;;;;114.20;31.67;;;1.40;99.90;;;;;;4999410;28;20257;-65
2021/01/25 07:17:01;;;;;;;116.87;31.33;;;1.40;99.90;;;;;;5037010;28;20220;-65
2021/01/25 07:19:40;;;;;;;110.27;31.30;;;1.40;99.90;;;;;;5047707;28;20212;-65
2021/01/25 07:30:21;;;;;;;119.37;32.50;;;1.50;99.90;;;;;;5032237;28;20217;-65
2021/01/25 07:41:00;;;;;;;102.03;29.33;;;1.40;99.90;;;;;;5038197;28;20212;-65
2021/01/25 07:51:41;;;;;;;105.60;32.10;;;1.50;99.90;;;;;;4982460;28;20311;-64
2021/01/25 07:54:48;;;;;;;104.30;32.67;;;1.50;99.90;;;;;;4961228;28;20219;-65
2021/01/25 07:57:32;;;;;;;99.90;33.77;;;1.50;99.90;;;;;;4980297;28;20218;-65
2021/01/25 08:00:17;;;;;;;93.73;32.07;;;1.50;99.90;;;;;;4982871;28;20740;-65
2021/01/25 08:10:05;;;;;;;83.67;30.73;;;1.50;99.90;;;;;;5014662;28;20703;-64
2021/01/25 08:13:00;;;;;;;84.93;32.27;;;1.50;99.90;;;;;;5040690;28;20216;-64
2021/01/25 08:15:52;;;;;;;81.20;31.17;;;1.50;99.90;;;;;;5050889;28;20617;-65
2021/01/25 08:18:43;;;;;;;81.73;31.63;;;1.50;99.90;;;;;;5007064;28;20279;-65
2021/01/25 08:21:26;;;;;;;76.90;30.03;;;1.60;99.90;;;;;;5052733;28;20224;-65
2021/01/25 08:24:02;;;;;;;76.57;30.53;;;1.60;99.90;;;;;;5047175;28;20212;-65
2021/01/25 08:26:43;;;;;;;67.80;29.77;;;1.60;99.90;;;;;;5065536;28;20207;-65
2021/01/25 08:30:01;;;;;;;68.10;28.90;;;1.60;99.90;;;;;;5050184;28;20216;-65
2021/01/25 08:33:32;;;;;;;71.10;28.50;;;1.60;99.90;;;;;;4926746;29;20227;-65
2021/01/25 08:36:28;;;;;;;61.70;26.80;;;1.60;99.90;;;;;;4952201;29;20231;-65
2021/01/25 08:41:59;;;;;;;56.47;25.60;;;1.70;99.90;;;;;;4946970;28;20224;-64
2021/01/25 08:47:23;;;;;;;54.43;24.47;;;1.60;99.90;;;;;;4932436;29;20231;-64
2021/01/25 08:50:29;;;;;;;54.33;23.63;;;1.60;99.90;;;;;;4963560;28;20252;-64
2021/01/25 08:53:02;;;;;;;52.03;23.90;;;1.60;99.90;;;;;;4995090;28;20241;-64
2021/01/25 08:55:48;;;;;;;53.03;24.70;;;1.60;99.90;;;;;;4998919;28;20229;-64
2021/01/25 09:01:58;;;;;;;51.63;23.93;;;1.60;99.90;;;;;;5042135;28;20216;-65
2021/01/25 09:04:29;;;;;;;55.67;25.43;;;1.60;99.90;;;;;;5017981;28;20914;-65
2021/01/25 09:07:03;;;;;;;52.97;25.10;;;1.70;99.90;;;;;;5056214;28;20274;-64
2021/01/25 09:09:39;;;;;;;55.57;25.70;;;1.80;99.90;;;;;;5061493;28;20751;-64
2021/01/25 09:12:12;;;;;;;52.73;25.47;;;1.90;99.90;;;;;;5064819;28;20303;-64
2021/01/25 09:15:23;;;;;;;49.93;25.43;;;2.00;99.90;;;;;;5044803;28;20209;-65
2021/01/25 09:21:04;;;;;;;47.43;23.83;;;2.20;99.90;;;;;;5023141;28;20243;-64
2021/01/25 09:23:56;;;;;;;45.07;24.57;;;2.10;99.90;;;;;;5046595;28;20271;-64
2021/01/25 09:26:53;;;;;;;47.50;24.20;;;2.10;99.90;;;;;;5051282;28;20232;-64
2021/01/25 09:30:00;;;;;;;45.03;23.93;;;2.10;99.90;;;;;;5055275;28;20211;-64
2021/01/25 09:32:33;;;;;;;40.30;22.40;;;2.10;99.90;;;;;;5006657;28;20218;-64
2021/01/25 09:48:19;;;;;;;38.23;21.33;;;2.30;99.90;;;;;;4933870;29;20396;-64
2021/01/25 09:50:53;;;;;;;40.83;22.00;;;2.40;99.90;;;;;;4932939;29;20217;-64
2021/01/25 09:56:42;;;;;;;38.50;21.23;;;2.90;99.90;;;;;;5000332;28;20221;-64
2021/01/25 09:59:59;;;;;;;35.87;21.20;;;3.20;99.90;;;;;;4989877;28;20652;-64
2021/01/25 10:05:51;;;;;;;31.87;19.47;;;3.40;99.90;;;;;;4986997;28;20313;-65
2021/01/25 10:09:02;;;;;;;34.50;19.33;;;3.40;99.90;;;;;;5003594;28;20230;-64
2021/01/25 10:11:52;;;;;;;32.40;19.13;;;3.30;99.90;;;;;;4988157;28;20700;-65
2021/01/25 10:15:26;;;;;;;31.17;19.53;;;3.30;99.90;;;;;;5006549;28;20233;-65
2021/01/25 10:18:03;;;;;;;32.03;18.73;;;3.50;99.90;;;;;;4991874;28;20313;-65
2021/01/25 10:20:44;;;;;;;30.60;18.90;;;3.80;99.90;;;;;;5009167;28;20806;-65
2021/01/25 10:26:33;;;;;;;31.33;18.20;;;4.30;99.90;;;;;;5001463;28;20254;-65
2021/01/25 10:29:00;;;;;;;27.93;18.10;;;4.50;99.90;;;;;;5009886;28;20623;-65
2021/01/25 10:31:28;;;;;;;28.30;17.17;;;4.50;99.90;;;;;;5024829;28;20222;-65
2021/01/25 10:34:05;;;;;;;29.83;17.53;;;4.60;99.90;;;;;;5018075;28;20221;-65
2021/01/25 10:39:50;;;;;;;24.13;16.47;;;4.90;99.90;;;;;;5020973;28;20213;-65
2021/01/25 10:42:42;;;;;;;28.60;17.53;;;5.10;99.90;;;;;;5019804;28;20229;-65
2021/01/25 10:45:25;;;;;;;30.37;18.73;;;5.20;99.90;;;;;;5024664;28;20225;-65
2021/01/25 10:51:23;;;;;;;26.47;17.27;;;5.40;99.90;;;;;;5007319;28;20275;-65
2021/01/25 10:54:01;;;;;;;25.33;16.57;;;5.60;99.90;;;;;;5028419;28;20220;-65
2021/01/25 10:56:37;;;;;;;24.30;16.73;;;5.80;99.90;;;;;;5026662;28;20253;-65
2021/01/25 10:59:25;;;;;;;24.50;16.60;;;5.80;99.90;;;;;;4971546;28;20227;-65
2021/01/25 11:02:19;;;;;;;28.00;17.27;;;5.80;99.90;;;;;;4984540;28;20215;-65
2021/01/25 11:05:06;;;;;;;22.83;15.47;;;5.90;99.90;;;;;;4945103;28;20224;-65
2021/01/25 11:10:51;;;;;;;22.63;14.80;;;6.10;99.90;;;;;;4941412;29;20686;-65
2021/01/25 11:13:33;;;;;;;18.47;13.43;;;6.20;99.90;;;;;;4941427;29;20609;-65
2021/01/25 11:16:12;;;;;;;19.30;13.53;;;6.30;99.90;;;;;;4943074;29;20236;-66
2021/01/25 11:18:44;;;;;;;21.30;14.30;;;6.50;99.90;;;;;;4934783;29;20233;-65
2021/01/25 11:21:34;;;;;;;20.83;14.67;;;6.60;99.90;;;;;;4930198;28;20704;-66
2021/01/25 11:24:03;;;;;;;18.10;13.27;;;6.70;99.90;;;;;;4981192;28;20258;-65
2021/01/25 11:26:41;;;;;;;18.40;13.20;;;6.80;99.90;;;;;;4974703;28;20302;-65
2021/01/25 11:29:37;;;;;;;20.80;13.77;;;6.90;99.90;;;;;;4949986;28;20377;-65
2021/01/25 11:32:07;;;;;;;21.10;14.33;;;7.10;99.90;;;;;;5004226;28;20222;-65
2021/01/25 11:34:40;;;;;;;20.10;14.00;;;7.30;99.90;;;;;;5007909;28;20300;-66
2021/01/25 11:37:15;;;;;;;18.60;13.17;;;7.50;99.90;;;;;;5003170;28;20214;-65
2021/01/25 11:39:52;;;;;;;20.70;14.23;;;7.60;99.90;;;;;;5002335;28;20656;-65
2021/01/25 11:42:29;;;;;;;16.60;11.90;;;7.70;99.90;;;;;;5032381;28;20219;-66
2021/01/25 11:45:00;;;;;;;16.70;11.27;;;7.80;99.90;;;;;;5071139;28;20216;-66
2021/01/25 11:47:40;;;;;;;18.57;12.93;;;7.70;99.90;;;;;;5049241;28;20240;-66
2021/01/25 11:50:10;;;;;;;14.70;11.23;;;7.90;99.90;;;;;;5059616;28;20298;-66
2021/01/25 11:52:37;;;;;;;12.13;9.50;;;8.00;99.90;;;;;;5059437;28;20211;-66
2021/01/25 11:55:07;;;;;;;12.40;9.80;;;8.20;99.90;;;;;;5052051;28;20233;-66
2021/01/25 12:00:28;;;;;;;;;;;;;;;;;;;;;
2021/01/25 12:03:36;;;;;;;13.33;8.77;;;8.40;99.90;;;;;;5046792;28;20750;-66
2021/01/25 12:06:20;;;;;;;11.13;8.67;;;8.70;99.90;;;;;;5068979;28;20613;-66
2021/01/25 12:09:17;;;;;;;16.57;10.20;;;8.90;99.90;;;;;;5065696;28;20224;-66
2021/01/25 12:12:30;;;;;;;15.30;11.47;;;8.90;99.90;;;;;;5017314;28;20243;-66
2021/01/25 12:15:02;;;;;;;19.43;13.20;;;8.90;99.90;;;;;;5043974;28;21843;-66
2021/01/25 12:18:04;;;;;;;19.83;12.57;;;8.90;99.90;;;;;;5054232;28;20223;-66
2021/01/25 12:20:57;;;;;;;18.17;11.50;;;9.00;99.90;;;;;;4989648;28;20223;-66
2021/01/25 12:23:34;;;;;;;15.40;11.27;;;9.30;99.90;;;;;;5029645;28;20703;-66
2021/01/25 12:26:27;;;;;;;16.50;11.20;;;9.30;99.90;;;;;;5066304;28;20724;-66
2021/01/25 12:28:56;;;;;;;14.90;11.53;;;9.40;99.90;;;;;;5070038;28;20220;-66
2021/01/25 12:31:45;;;;;;;22.23;13.20;;;9.30;99.90;;;;;;5068622;28;20216;-66
2021/01/25 12:34:33;;;;;;;23.53;14.43;;;9.40;99.90;;;;;;5054879;28;20208;-65
2021/01/25 12:37:03;;;;;;;23.63;15.70;;;9.40;99.90;;;;;;5056728;28;20334;-66
2021/01/25 12:39:30;;;;;;;25.07;14.90;;;9.40;99.90;;;;;;5063225;28;20220;-66
2021/01/25 12:42:01;;;;;;;24.67;15.00;;;9.50;99.90;;;;;;5043095;28;20217;-65
2021/01/25 12:44:32;;;;;;;34.07;17.53;;;9.50;99.90;;;;;;5060248;28;20265;-66
2021/01/25 12:47:00;;;;;;;22.60;14.13;;;9.50;99.90;;;;;;5056597;28;20227;-66
2021/01/25 12:49:28;;;;;;;23.60;14.57;;;9.20;99.90;;;;;;5046036;28;20262;-66
2021/01/25 12:51:59;;;;;;;21.43;12.97;;;9.30;99.90;;;;;;5059359;28;20224;-66
2021/01/25 12:54:26;;;;;;;27.80;13.20;;;9.40;99.90;;;;;;5043688;28;20220;-66
2021/01/25 12:56:53;;;;;;;22.23;14.23;;;9.60;99.90;;;;;;5040510;28;20270;-66
2021/01/25 12:59:23;;;;;;;24.77;12.60;;;9.60;99.90;;;;;;5063489;28;20273;-66
2021/01/25 13:01:51;;;;;;;24.07;13.83;;;9.50;99.90;;;;;;5059161;28;20252;-66
2021/01/25 13:04:19;;;;;;;18.00;12.40;;;9.60;99.90;;;;;;5064122;28;20227;-66
2021/01/25 13:06:53;;;;;;;17.40;11.63;;;9.10;99.90;;;;;;5058765;28;20223;-66
2021/01/25 13:09:23;;;;;;;17.63;11.13;;;9.10;99.90;;;;;;5043233;28;20215;-66
2021/01/25 13:11:50;;;;;;;16.87;11.30;;;8.90;99.90;;;;;;5037552;28;20671;-66
2021/01/25 13:14:32;;;;;;;18.43;9.80;;;8.60;99.90;;;;;;5058222;28;20622;-67
2021/01/25 13:17:01;;;;;;;15.90;9.40;;;8.30;99.90;;;;;;5057856;28;20311;-66
2021/01/25 13:19:28;;;;;;;9.30;7.23;;;8.00;99.90;;;;;;5051649;28;20238;-66
2021/01/25 13:22:03;;;;;;;4.87;4.30;;;7.50;99.90;;;;;;5041095;28;20710;-65
2021/01/25 13:24:34;;;;;;;7.50;4.57;;;7.00;99.90;;;;;;5036911;28;20270;-66
2021/01/25 13:27:01;;;;;;;5.63;4.70;;;6.50;99.90;;;;;;5053212;28;20224;-66
2021/01/25 13:29:31;;;;;;;5.77;4.67;;;6.10;99.90;;;;;;5061596;28;20285;-65
2021/01/25 13:32:00;;;;;;;4.13;3.70;;;5.60;99.90;;;;;;5069109;28;20241;-66
2021/01/25 13:34:27;;;;;;;6.27;3.10;;;5.10;99.90;;;;;;5064722;28;20246;-65
2021/01/25 13:36:57;;;;;;;11.43;4.07;;;4.80;99.90;;;;;;5069836;28;20220;-66
2021/01/25 13:39:30;;;;;;;9.50;3.97;;;4.60;99.90;;;;;;5049430;28;20265;-65
2021/01/25 13:42:17;;;;;;;13.10;5.60;;;4.50;99.90;;;;;;5054540;28;20326;-66
2021/01/25 13:44:54;;;;;;;4.47;2.80;;;4.50;99.90;;;;;;5070086;28;20713;-66
2021/01/25 13:47:22;;;;;;;4.23;2.60;;;4.60;99.90;;;;;;5058150;28;20216;-65
2021/01/25 13:49:53;;;;;;;3.00;2.80;;;4.70;99.90;;;;;;5036980;28;20231;-65
2021/01/25 13:52:26;;;;;;;4.00;2.90;;;4.80;99.90;;;;;;5043247;28;20701;-65
2021/01/25 13:55:00;;;;;;;3.43;2.87;;;4.80;99.90;;;;;;5064405;28;20219;-65
2021/01/25 13:57:37;;;;;;;3.30;3.10;;;4.80;99.90;;;;;;5059612;28;20265;-65
2021/01/25 14:00:20;;;;;;;4.57;3.50;;;4.80;99.90;;;;;;5060884;28;20266;-65
2021/01/25 14:02:54;;;;;;;2.80;2.70;;;5.00;99.90;;;;;;5054583;28;20718;-65
2021/01/25 14:05:28;;;;;;;3.30;3.00;;;5.20;99.90;;;;;;5063999;28;20306;-66
2021/01/25 14:08:26;;;;;;;3.63;3.10;;;5.40;99.90;;;;;;5056386;28;20226;-66
2021/01/25 14:10:59;;;;;;;3.57;3.27;;;5.40;99.90;;;;;;5040635;28;20247;-66
2021/01/25 14:13:26;;;;;;;6.53;3.23;;;5.40;99.90;;;;;;5055170;28;20601;-65
2021/01/25 14:15:54;;;;;;;8.43;4.10;;;5.40;99.90;;;;;;5066318;28;20637;-66
2021/01/25 14:21:18;;;;;;;5.63;3.00;;;5.50;99.90;;;;;;5037799;28;20220;-66
2021/01/25 14:24:33;;;;;;;3.07;2.80;;;5.50;99.90;;;;;;5045343;28;20242;-67
2021/01/25 14:27:10;;;;;;;8.27;3.80;;;5.50;99.90;;;;;;5053626;28;20231;-67
2021/01/25 14:33:05;;;;;;;6.17;4.77;;;5.50;99.90;;;;;;4996884;28;20735;-67
2021/01/25 14:35:43;;;;;;;8.47;5.07;;;5.60;99.90;;;;;;4968956;28;20250;-66
2021/01/25 14:38:10;;;;;;;4.40;3.40;;;5.60;99.90;;;;;;5001593;28;20296;-66
2021/01/25 14:40:53;;;;;;;5.10;3.40;;;5.60;99.90;;;;;;4998783;28;20229;-66
2021/01/25 14:46:07;;;;;;;3.30;3.00;;;5.60;99.90;;;;;;4983118;28;20614;-66
2021/01/25 14:48:43;;;;;;;3.23;2.97;;;5.60;99.90;;;;;;4985324;28;20225;-66
2021/01/25 14:51:12;;;;;;;6.87;3.70;;;5.60;99.90;;;;;;4993134;28;20217;-66
2021/01/25 14:53:50;;;;;;;7.90;3.23;;;5.60;99.90;;;;;;4999028;28;20763;-66
2021/01/25 14:56:41;;;;;;;4.87;3.43;;;5.60;99.90;;;;;;4949051;28;20218;-66
2021/01/25 14:59:08;;;;;;;7.70;3.97;;;5.70;99.90;;;;;;5001888;28;20297;-66
2021/01/25 15:01:36;;;;;;;4.70;2.63;;;5.70;99.90;;;;;;4987768;28;20213;-65
2021/01/25 15:07:54;;;;;;;3.47;2.20;;;5.70;99.90;;;;;;5006392;28;20650;-65
2021/01/25 15:10:37;;;;;;;8.07;2.77;;;5.60;99.90;;;;;;5006014;28;20637;-65
2021/01/25 15:13:20;;;;;;;8.90;2.23;;;5.50;99.90;;;;;;5006999;28;20228;-65
2021/01/25 15:16:18;;;;;;;6.33;2.60;;;5.40;99.90;;;;;;5008735;28;20280;-65
2021/01/25 15:25:11;;;;;;;6.97;2.73;;;5.30;99.90;;;;;;5061660;28;20212;-65
2021/01/25 15:27:43;;;;;;;3.63;2.47;;;5.20;99.90;;;;;;5048677;28;20273;-65
2021/01/25 15:30:26;;;;;;;6.03;2.37;;;5.10;99.90;;;;;;5061439;28;20244;-65
2021/01/25 15:33:08;;;;;;;3.93;2.30;;;5.10;99.90;;;;;;5026239;28;20215;-65
2021/01/25 15:35:40;;;;;;;2.83;2.53;;;5.00;99.90;;;;;;5066572;28;20212;-64
2021/01/25 15:38:34;;;;;;;6.20;2.93;;;5.00;99.90;;;;;;5063101;28;20269;-64
2021/01/25 15:47:05;;;;;;;6.07;2.77;;;5.00;99.90;;;;;;5040962;28;20212;-64
2021/01/25 15:49:48;;;;;;;8.23;2.50;;;5.00;99.90;;;;;;5059717;28;20294;-64
2021/01/25 15:52:28;;;;;;;6.43;2.47;;;5.00;99.90;;;;;;5065464;28;20226;-64
2021/01/25 15:55:05;;;;;;;4.40;2.60;;;4.90;99.90;;;;;;5058901;28;20254;-64
2021/01/25 15:57:47;;;;;;;3.63;2.27;;;4.90;99.90;;;;;;5035571;28;20721;-64
2021/01/25 16:00:17;;;;;;;2.43;2.20;;;4.90;99.90;;;;;;5038900;28;20261;-64
2021/01/25 16:08:32;;;;;;;13.70;4.90;;;4.70;99.90;;;;;;4977112;28;20843;-64
2021/01/25 16:11:25;;;;;;;10.73;4.03;;;4.60;99.90;;;;;;5057258;28;20575;-64
2021/01/25 16:13:57;;;;;;;10.27;3.87;;;4.60;99.90;;;;;;5026164;28;20626;-65
2021/01/25 16:16:29;;;;;;;7.30;4.30;;;4.50;99.90;;;;;;5060574;28;20616;-64
2021/01/25 16:18:56;;;;;;;5.37;2.73;;;4.40;99.90;;;;;;5062784;28;20217;-64
2021/01/25 16:21:28;;;;;;;5.53;3.50;;;4.30;99.90;;;;;;5060374;28;20282;-64
2021/01/25 16:23:55;;;;;;;7.00;3.40;;;4.30;99.90;;;;;;5058293;28;20618;-64
2021/01/25 16:29:27;;;;;;;3.67;3.37;;;4.20;99.90;;;;;;5058799;28;20555;-64
2021/01/25 16:32:06;;;;;;;4.57;3.17;;;4.00;99.90;;;;;;5058782;28;20234;-64
2021/01/25 16:34:35;;;;;;;9.50;3.97;;;3.90;99.90;;;;;;5059212;28;20309;-64
2021/01/25 16:42:26;;;;;;;9.90;4.80;;;3.70;99.90;;;;;;5036984;28;20231;-64
2021/01/25 16:45:53;;;;;;;7.83;4.60;;;3.60;99.90;;;;;;5058447;28;20697;-64
2021/01/25 16:48:27;;;;;;;6.53;3.70;;;3.50;99.90;;;;;;5048082;28;20683;-64
2021/01/25 16:51:47;;;;;;;10.07;3.73;;;3.50;99.90;;;;;;5060453;28;20203;-64
2021/01/25 16:54:17;;;;;;;6.80;4.40;;;3.50;99.90;;;;;;5060282;28;20208;-64
2021/01/25 16:56:51;;;;;;;8.03;4.93;;;3.40;99.90;;;;;;5058894;28;20216;-64
2021/01/25 16:59:28;;;;;;;12.70;5.23;;;3.30;99.90;;;;;;5056902;28;20212;-63
2021/01/25 17:02:32;;;;;;;7.90;5.33;;;3.30;99.90;;;;;;5022155;28;20225;-64
2021/01/25 17:05:00;;;;;;;8.40;4.63;;;3.30;99.90;;;;;;5003490;28;20324;-64
2021/01/25 17:07:45;;;;;;;8.33;4.37;;;3.20;99.90;;;;;;5008651;28;20675;-64
2021/01/25 17:10:14;;;;;;;9.87;4.03;;;3.20;99.90;;;;;;5020088;28;20239;-64
2021/01/25 17:12:52;;;;;;;7.43;4.37;;;3.20;99.90;;;;;;5021765;28;20319;-66
2021/01/25 17:15:20;;;;;;;9.77;4.27;;;3.10;99.90;;;;;;5016517;28;20255;-64
2021/01/25 17:20:41;;;;;;;6.30;4.53;;;3.10;99.90;;;;;;5044382;28;20265;-64
2021/01/25 17:23:18;;;;;;;7.93;4.70;;;3.00;99.90;;;;;;5061216;28;20694;-64